GR679 / G-LERE 7700 Squawk Report (15th of June, 2019)

Aircraft AT75 Reg No. G-LERE Age 9 years old
Model ATR 72 Turboprop engines 2 First flight 24-11-09
Registered 15-11-16 Rollout 11-09 Delivered 09-02-10
Construction No. 891 Line No. N/A Series 212A
ADSHEX 407201 Airline name Aurigny Air Services Owner Nordic Aviation Capital
Airfield based Guernsey Airport~Guernsey~2 First tracked 2017-07-15 15:07:00

Flight history for G-LERE

Route Flight No Date Playback
Manchester (MAN) - Guernsey (GCI) GR679 2019-07-23 19:48:00
Guernsey (GCI) - Manchester (MAN) GR678 2019-07-23 17:44:00
Stansted (STN) - Guernsey (GCI) GR627 2019-07-23 15:47:00
Guernsey (GCI) - Stansted (STN) GR626 2019-07-23 14:51:00
???? N/A 2019-07-23 08:18:00
???? N/A 2019-07-23 07:51:00
Gatwick (LGW) - Guernsey (GCI) GR609 2019-07-22 18:00:00
Guernsey (GCI) - Gatwick (LGW) GR608 2019-07-22 16:31:00
East Midlands Airport (EMA) - Guernsey (GCI) GR697 2019-07-22 14:26:00
Guernsey (GCI) - Stansted (STN) GR626 2019-07-22 12:31:00
Gatwick (LGW) - Guernsey (GCI) GR603 2019-07-22 10:43:00
Guernsey (GCI) - Gatwick (LGW) GR602 2019-07-22 08:49:00
Manchester (MAN) - Guernsey (GCI) GR679 2019-07-21 20:06:00
Guernsey (GCI) - Manchester (MAN) GR678 2019-07-21 18:08:00
Stansted (STN) - Guernsey (GCI) GR627 2019-07-21 16:07:00
Guernsey (GCI) - Stansted (STN) GR626 2019-07-21 15:17:00
Manchester (MAN) - Guernsey (GCI) GR671 2019-07-21 11:48:00
Guernsey (GCI) - Manchester (MAN) GR670 2019-07-21 09:52:00
Bristol (BRS) - Guernsey (GCI) GR643 2019-07-21 07:41:00
Guernsey (GCI) - Bristol (BRS) GR642 2019-07-21 06:22:00
Time Lat Lon Altitude Heading Speed Vertical Rate
2019-06-15 19:34:36 GMT 49.551693 -2.383291 1,950 150 217 -1280
2019-06-15 19:34:36 GMT 49.551693 -2.383291 3,025 150 217 -1280
2019-06-15 19:34:29 GMT 49.556999 -2.386706 3,200 150 217 -1280
2019-06-15 19:34:21 GMT 49.565704 -2.393832 3,525 150 217 -1280
2019-06-15 19:34:08 GMT 49.576317 -2.402814 3,625 150 220 -1088
2019-06-15 19:33:55 GMT 49.586884 -2.411796 3,775 150 220 -1088
2019-06-15 19:33:49 GMT 49.592892 -2.416992 4,025 150 220 -1088
2019-06-15 19:33:33 GMT 49.606808 -2.429092 4,250 150 220 -1088
2019-06-15 19:33:28 GMT 49.611183 -2.432729 4,450 150 220 -1088
2019-06-15 19:33:18 GMT 49.621380 -2.442008 4,850 150 220 -1088
2019-06-15 19:33:03 GMT 49.633018 -2.451881 4,875 149 219 -1152
2019-06-15 19:32:58 GMT 49.637486 -2.455667 5,175 149 219 -1152
2019-06-15 19:32:43 GMT 49.649498 -2.466505 5,275 148 219 -1080
2019-06-15 19:32:37 GMT 49.656620 -2.472815 5,475 148 219 -1080
2019-06-15 19:32:25 GMT 49.665791 -2.480164 5,650 148 219 -1080
2019-06-15 19:32:17 GMT 49.673889 -2.487364 5,825 148 219 -1080
2019-06-15 19:31:56 GMT 49.692184 -2.504289 6,275 148 219 -1080
2019-06-15 19:31:42 GMT 49.704521 -2.515721 6,475 148 219 -1080
2019-06-15 19:31:36 GMT 49.709782 -2.520620 6,675 148 219 -1080
2019-06-15 19:30:32 GMT 49.760307 -2.568657 7,875 148 219 -1080
2019-06-15 19:30:12 GMT 49.788673 -2.594919 8,300 147 220 -1140
2019-06-15 19:30:00 GMT 49.788673 -2.594919 8,475 147 220 -1140
2019-06-15 19:29:47 GMT 49.799355 -2.605526 8,775 147 222 -1080
2019-06-15 19:29:33 GMT 49.802608 -2.624529 9,050 160 263 -480
2019-06-15 19:29:09 GMT 49.832298 -2.638261 9,500 149 223 -1620
2019-06-15 19:28:59 GMT 49.841667 -2.646107 9,700 148 228 -900
2019-06-15 19:28:40 GMT 49.858692 -2.662276 10,000 114 201 -60
2019-06-15 19:28:28 GMT 49.867142 -2.691233 10,200 164 279 -660
2019-06-15 19:28:18 GMT 49.867142 -2.691233 10,350 166 286 -540
2019-06-15 19:28:02 GMT 49.892925 -2.693778 10,550 144 231 -720
2019-06-15 19:27:52 GMT 49.901478 -2.703009 10,675 149 227 -300
2019-06-15 19:27:42 GMT 49.910786 -2.711739 10,825 148 211 -660
2019-06-15 19:27:31 GMT 49.920189 -2.721841 10,900 152 217 -1080
2019-06-15 19:27:19 GMT 49.930889 -2.730543 11,050 152 216 -840
2019-06-15 19:27:08 GMT 49.941330 -2.742523 11,175 145 230 -540
2019-06-15 19:26:55 GMT 49.953007 -2.751279 11,325 146 242 -960
2019-06-15 19:26:43 GMT 49.964283 -2.762676 11,450 152 209 -360
2019-06-15 19:26:32 GMT 49.983669 -2.780977 11,650 147 237 -840
2019-06-15 19:26:22 GMT 49.983669 -2.780977 11,700 152 204 -660
2019-06-15 19:26:10 GMT 49.993729 -2.789180 11,825 148 225 -720
2019-06-15 19:25:56 GMT 50.034821 -2.771907 11,975 102 224 -720
2019-06-15 19:25:33 GMT 50.053986 -2.790516 12,275 74 326 -660
2019-06-15 19:25:12 GMT 50.045704 -2.838185 12,550 149 229 -540
2019-06-15 19:25:01 GMT 50.066753 -2.856787 12,675 150 236 -780
2019-06-15 19:24:50 GMT 50.066753 -2.856787 12,750 150 247 -780
2019-06-15 19:24:36 GMT 50.079689 -2.868743 12,950 148 256 -480
2019-06-15 19:24:24 GMT 50.091972 -2.880007 13,100 151 228 -600
2019-06-15 19:24:12 GMT 50.103554 -2.889700 13,225 145 244 -480
2019-06-15 19:24:00 GMT 50.115261 -2.900417 13,425 150 238 -720
2019-06-15 19:23:48 GMT 50.127289 -2.910740 13,525 149 242 -480
2019-06-15 19:23:37 GMT 50.137695 -2.920191 13,675 149 238 -660
2019-06-15 19:23:26 GMT 50.148155 -2.929732 14,025 152 231 0
2019-06-15 19:23:16 GMT 50.158974 -2.939302 13,875 147 257 -420
2019-06-15 19:23:06 GMT 50.168343 -2.947726 13,975 149 245 -600
2019-06-15 19:22:56 GMT 50.178059 -2.956967 14,150 149 236 -420
2019-06-15 19:22:45 GMT 50.188412 -2.966557 14,250 149 257 -480
2019-06-15 19:22:35 GMT 50.198662 -2.976060 14,375 150 259 -600
2019-06-15 19:22:24 GMT 50.221767 -2.997443 14,525 150 244 -420
2019-06-15 19:22:12 GMT 50.221767 -2.997443 14,625 151 264 -600
2019-06-15 19:22:02 GMT 50.232548 -3.006527 14,775 160 261 -180
2019-06-15 19:21:52 GMT 50.243977 -3.012809 14,875 140 221 -480
2019-06-15 19:21:39 GMT 50.255650 -3.027364 14,950 167 298 -480
2019-06-15 19:21:29 GMT 50.282597 -3.045585 15,050 123 256 -480
2019-06-15 19:21:15 GMT 50.282597 -3.045585 15,150 133 233 -840
2019-06-15 19:21:04 GMT 50.294922 -3.054662 15,275 146 202 -600
2019-06-15 19:20:50 GMT 50.305874 -3.065967 15,350 153 272 -240
2019-06-15 19:20:39 GMT 50.318329 -3.075525 15,450 159 248 -480
2019-06-15 19:20:28 GMT 50.339321 -3.087188 15,575 161 281 0
2019-06-15 19:20:18 GMT 50.350117 -3.093244 15,625 160 212 -480
2019-06-15 19:20:08 GMT 50.363491 -3.100399 15,725 161 277 -420
2019-06-15 19:19:57 GMT 50.363491 -3.100399 15,825 160 228 -480
2019-06-15 19:19:46 GMT 50.375278 -3.106908 15,875 161 257 -300
2019-06-15 19:19:35 GMT 50.386974 -3.113276 16,000 160 254 -300
2019-06-15 19:19:24 GMT 50.398624 -3.119778 16,100 160 257 -900
2019-06-15 19:19:14 GMT 50.409855 -3.126112 16,150 160 254 -720
2019-06-15 19:19:03 GMT 50.422108 -3.132791 16,275 174 258 -240
2019-06-15 19:18:51 GMT 50.434811 -3.139770 16,375 161 265 -480
2019-06-15 19:18:41 GMT 50.456337 -3.151134 16,450 161 271 -960
2019-06-15 19:18:31 GMT 50.456337 -3.151134 16,525 159 298 60
2019-06-15 19:18:19 GMT 50.469753 -3.158811 16,650 161 242 -300
2019-06-15 19:18:06 GMT 50.485477 -3.165005 16,750 153 240 -300
2019-06-15 19:17:55 GMT 50.496010 -3.172914 16,825 160 260 -540
2019-06-15 19:17:44 GMT 50.509418 -3.180057 16,925 184 284 -540
2019-06-15 19:17:34 GMT 50.522530 -3.178369 17,025 138 254 -300
2019-06-15 19:17:16 GMT 50.539356 -3.196381 17,150 160 249 -600
2019-06-15 19:17:06 GMT 50.551010 -3.202485 17,225 161 260 -360
2019-06-15 19:16:56 GMT 50.561787 -3.208475 17,325 194 330 -300
2019-06-15 19:16:46 GMT 50.587406 -3.221939 17,425 126 275 -540
2019-06-15 19:16:32 GMT 50.587406 -3.221939 17,525 187 327 -780
2019-06-15 19:16:22 GMT 50.602402 -3.218658 17,625 146 239 -540
2019-06-15 19:16:07 GMT 50.624615 -3.211973 17,750 106 362 -180
2019-06-15 19:15:51 GMT 50.636208 -3.238850 17,850 149 253 -480
2019-06-15 19:15:40 GMT 50.646633 -3.253715 17,975 161 246 -240
2019-06-15 19:15:27 GMT 50.660648 -3.261223 18,100 192 320 -360
2019-06-15 19:15:17 GMT 50.675156 -3.256266 18,125 150 261 -300
2019-06-15 19:15:05 GMT 50.688271 -3.262092 18,225 119 341 -420
2019-06-15 19:14:54 GMT 50.696957 -3.282663 18,350 157 278 -300
2019-06-15 19:14:43 GMT 50.710087 -3.291198 18,400 178 261 -480
2019-06-15 19:14:33 GMT 50.722202 -3.291665 18,500 131 262 -300
2019-06-15 19:14:22 GMT 50.732044 -3.305105 18,600 160 254 -420
2019-06-15 19:14:11 GMT 50.745193 -3.311839 18,700 169 240 -600
2019-06-15 19:14:01 GMT 50.756794 -3.314698 18,750 184 236 -900
2019-06-15 19:13:50 GMT 50.766113 -3.311899 18,850 214 387 -480
2019-06-15 19:13:39 GMT 50.782330 -3.294166 18,975 171 155 -600
2019-06-15 19:13:26 GMT 50.791573 -3.296275 19,100 208 230 -780
2019-06-15 19:13:16 GMT 50.800949 -3.288268 19,175 206 245 -420
2019-06-15 19:13:04 GMT 50.812107 -3.278950 19,250 202 201 -780
2019-06-15 19:12:53 GMT 50.822884 -3.269392 19,350 207 218 -480
2019-06-15 19:12:43 GMT 50.841724 -3.252241 19,475 215 225 -420
2019-06-15 19:12:32 GMT 50.852394 -3.243877 19,550 202 240 -420
2019-06-15 19:12:21 GMT 50.852394 -3.243877 19,625 209 213 -360
2019-06-15 19:12:11 GMT 50.862446 -3.236121 19,725 209 244 -480
2019-06-15 19:12:01 GMT 50.871174 -3.228557 19,800 210 222 -240
2019-06-15 19:11:48 GMT 50.882690 -3.217826 19,900 192 147 -180
2019-06-15 19:11:38 GMT 50.888824 -3.222667 19,975 228 401 -840
2019-06-15 19:11:28 GMT 50.899944 -3.200127 20,075 203 236 -720
2019-06-15 19:11:18 GMT 50.909714 -3.192174 20,150 238 475 -360
2019-06-15 19:11:07 GMT 50.923031 -3.155986 20,225 145 198 -540
2019-06-15 19:10:50 GMT 50.936573 -3.169054 20,400 216 238 -300
2019-06-15 19:10:39 GMT 50.945374 -3.165904 20,500 218 311 -240
2019-06-15 19:10:29 GMT 50.956627 -3.151590 20,575 218 280 -720
2019-06-15 19:10:19 GMT 50.966484 -3.138102 20,700 191 207 -840
2019-06-15 19:10:08 GMT 50.976582 -3.133968 20,750 207 232 -420
2019-06-15 19:09:58 GMT 50.986099 -3.126023 20,800 207 231 -600
2019-06-15 19:09:48 GMT 50.996201 -3.112937 20,900 222 336 0
2019-06-15 19:09:35 GMT 51.010727 -3.095339 21,000 143 234 0
2019-06-15 19:09:25 GMT 51.019627 -3.112244 21,000 215 313 0
2019-06-15 19:09:15 GMT 51.031372 -3.098695 21,000 197 230 0
2019-06-15 19:09:04 GMT 51.042572 -3.093114 21,000 164 267 0
2019-06-15 19:08:53 GMT 51.055737 -3.098729 21,000 171 218 0
2019-06-15 19:08:43 GMT 51.065704 -3.101407 21,000 164 219 0
2019-06-15 19:08:33 GMT 51.088497 -3.098426 21,000 210 256 0
2019-06-15 19:08:22 GMT 51.088497 -3.098426 21,000 200 240 0
2019-06-15 19:08:12 GMT 51.098896 -3.092189 21,000 175 238 0
2019-06-15 19:07:53 GMT 51.119537 -3.097191 21,000 185 239 0
2019-06-15 19:07:43 GMT 51.128078 -3.093913 21,000 179 262 0
2019-06-15 19:07:31 GMT 51.142635 -3.093933 21,000 142 243 0
2019-06-15 19:07:19 GMT 51.167675 -3.099813 21,000 169 221 0
2019-06-15 19:07:07 GMT 51.167675 -3.099813 21,000 172 222 0
2019-06-15 19:06:53 GMT 51.179028 -3.088191 21,000 181 298 0
2019-06-15 19:06:43 GMT 51.196968 -3.088879 21,000 186 198 0
2019-06-15 19:06:32 GMT 51.206360 -3.080281 21,000 177 222 0
2019-06-15 19:06:22 GMT 51.216629 -3.081037 21,000 193 252 0
2019-06-15 19:06:12 GMT 51.227982 -3.076729 21,000 176 221 0
2019-06-15 19:05:57 GMT 51.241982 -3.081725 21,000 187 240 0
2019-06-15 19:05:47 GMT 51.252647 -3.079963 21,000 179 245 0
2019-06-15 19:05:37 GMT 51.264652 -3.080106 21,000 186 196 0
2019-06-15 19:05:27 GMT 51.304825 -3.072981 21,000 196 236 0
2019-06-15 19:04:56 GMT 51.304825 -3.072981 21,000 173 258 0
2019-06-15 19:04:43 GMT 51.320282 -3.075907 21,000 192 254 0
2019-06-15 19:04:33 GMT 51.332844 -3.072647 21,000 167 190 0
2019-06-15 19:04:22 GMT 51.343365 -3.070737 21,000 180 251 0
2019-06-15 19:04:11 GMT 51.354256 -3.073288 21,000 202 263 0
2019-06-15 19:03:59 GMT 51.367702 -3.057772 21,000 150 285 0
2019-06-15 19:03:48 GMT 51.379822 -3.066689 21,000 183 229 0
2019-06-15 19:03:37 GMT 51.391502 -3.065565 21,000 185 229 0
2019-06-15 19:03:27 GMT 51.402431 -3.064377 21,000 184 233 0
2019-06-15 19:03:17 GMT 51.412086 -3.063294 21,000 183 242 0
2019-06-15 19:03:06 GMT 51.424290 -3.062219 21,000 184 233 0
2019-06-15 19:02:54 GMT 51.436954 -3.060568 21,000 174 219 0
2019-06-15 19:02:42 GMT 51.449982 -3.058868 21,000 182 228 0
2019-06-15 19:02:32 GMT 51.460297 -3.056674 21,000 183 233 0
2019-06-15 19:02:22 GMT 51.470631 -3.056339 21,000 182 226 0
2019-06-15 19:02:12 GMT 51.481113 -3.055555 21,000 184 249 0
2019-06-15 19:02:02 GMT 51.492638 -3.054080 21,000 184 232 0
2019-06-15 19:01:52 GMT 51.502079 -3.053876 21,000 187 247 0
2019-06-15 19:01:41 GMT 51.515041 -3.051470 21,000 182 211 0
2019-06-15 19:01:30 GMT 51.525841 -3.049988 21,000 185 226 0
2019-06-15 19:01:19 GMT 51.536907 -3.049869 21,000 159 308 0
2019-06-15 19:01:09 GMT 51.550262 -3.058011 21,000 213 228 0
2019-06-15 19:00:58 GMT 51.559914 -3.046252 21,000 190 248 0
2019-06-15 19:00:47 GMT 51.571785 -3.044968 21,000 179 232 0
2019-06-15 19:00:37 GMT 51.582199 -3.043650 21,000 174 199 0
2019-06-15 19:00:27 GMT 51.592091 -3.043218 21,000 188 243 0
2019-06-15 19:00:13 GMT 51.606529 -3.040518 21,000 184 245 0
2019-06-15 19:00:03 GMT 51.617924 -3.040517 21,000 192 254 0
2019-06-15 18:59:53 GMT 51.628399 -3.039226 21,000 187 246 0
2019-06-15 18:59:42 GMT 51.640842 -3.036705 21,000 169 195 0
2019-06-15 18:59:31 GMT 51.653301 -3.040447 21,000 200 191 0
2019-06-15 18:59:20 GMT 51.663902 -3.034139 21,000 168 284 0
2019-06-15 18:59:10 GMT 51.677494 -3.042141 21,000 212 208 0
2019-06-15 18:59:00 GMT 51.684624 -3.031621 21,000 199 207 0
2019-06-15 18:58:50 GMT 51.695023 -3.030380 21,000 184 219 0
2019-06-15 18:58:37 GMT 51.708084 -3.029763 21,000 189 254 0
2019-06-15 18:58:27 GMT 51.728706 -3.027022 21,000 185 224 0
2019-06-15 18:58:17 GMT 51.739101 -3.025261 21,000 184 218 0
2019-06-15 18:58:07 GMT 51.739101 -3.025261 21,000 184 238 0
2019-06-15 18:57:56 GMT 51.749451 -3.030040 21,000 193 230 0
2019-06-15 18:57:42 GMT 51.767250 -3.029319 21,000 212 200 0
2019-06-15 18:57:30 GMT 51.777069 -3.020812 21,000 183 213 0
2019-06-15 18:57:19 GMT 51.797611 -3.017969 21,000 186 226 0
2019-06-15 18:57:09 GMT 51.810066 -3.017711 21,000 183 225 0
2019-06-15 18:56:57 GMT 51.810066 -3.017711 21,000 184 213 0
2019-06-15 18:56:47 GMT 51.820225 -3.014218 21,000 179 208 0
2019-06-15 18:56:36 GMT 51.842239 -3.012031 21,000 187 207 0
2019-06-15 18:56:25 GMT 51.842239 -3.012031 21,000 178 218 0
2019-06-15 18:56:15 GMT 51.852325 -3.012556 21,000 174 188 0
2019-06-15 18:56:03 GMT 51.864574 -3.011348 21,000 184 237 0
2019-06-15 18:55:52 GMT 51.886070 -3.010194 21,000 182 221 0
2019-06-15 18:55:42 GMT 51.886070 -3.010194 21,000 190 239 0
2019-06-15 18:55:32 GMT 51.896961 -3.008380 21,000 175 193 0
2019-06-15 18:55:21 GMT 51.918015 -3.005405 21,000 186 203 0
2019-06-15 18:55:10 GMT 51.918015 -3.005405 21,000 184 240 0
2019-06-15 18:54:59 GMT 51.928326 -3.002978 21,000 183 217 0
2019-06-15 18:54:49 GMT 51.949245 -3.001403 21,000 181 222 0
2019-06-15 18:54:38 GMT 51.959682 -3.000196 21,000 187 195 300
2019-06-15 18:54:27 GMT 51.968586 -2.999312 21,000 174 200 300
2019-06-15 18:54:17 GMT 51.968586 -2.999312 20,975 185 208 600
2019-06-15 18:54:07 GMT 51.978176 -2.997917 20,900 184 189 300
2019-06-15 18:53:57 GMT 51.987198 -2.996475 20,825 181 199 300
2019-06-15 18:53:47 GMT 51.996426 -2.996037 20,750 182 201 300
2019-06-15 18:53:36 GMT 52.007408 -2.994385 20,700 190 200 240
2019-06-15 18:53:25 GMT 52.016853 -2.993233 20,650 176 200 0
2019-06-15 18:53:11 GMT 52.029461 -2.991880 20,600 184 183 120
2019-06-15 18:53:00 GMT 52.041344 -2.992280 20,550 184 214 180
2019-06-15 18:52:48 GMT 52.051128 -2.990123 20,475 185 186 120
2019-06-15 18:52:37 GMT 52.060631 -2.988643 20,450 184 201 60
2019-06-15 18:52:26 GMT 52.070835 -2.987301 20,425 177 196 180
2019-06-15 18:52:15 GMT 52.080833 -2.988030 20,375 186 195 180
2019-06-15 18:52:03 GMT 52.091801 -2.986537 20,325 190 206 660
2019-06-15 18:51:50 GMT 52.104328 -2.982781 20,275 183 207 960
2019-06-15 18:51:39 GMT 52.115376 -2.982040 19,975 185 210 1380
2019-06-15 18:51:28 GMT 52.125553 -2.979888 19,750 182 219 1200
2019-06-15 18:51:16 GMT 52.137035 -2.977357 19,400 175 245 180
2019-06-15 18:51:04 GMT 52.185097 -2.973444 19,100 208 223 0
2019-06-15 18:50:34 GMT 52.185097 -2.973444 19,000 183 249 0
2019-06-15 18:50:23 GMT 52.210945 -2.970532 19,000 183 258 0
2019-06-15 18:50:12 GMT 52.210945 -2.970532 19,000 186 238 0
2019-06-15 18:50:00 GMT 52.224209 -2.969422 19,000 187 243 0
2019-06-15 18:49:49 GMT 52.236519 -2.966839 19,000 183 246 0
2019-06-15 18:49:36 GMT 52.251328 -2.965545 19,000 185 244 0
2019-06-15 18:49:08 GMT 52.283146 -2.961288 19,000 182 258 0
2019-06-15 18:48:58 GMT 52.294422 -2.960609 19,000 184 266 0
2019-06-15 18:48:47 GMT 52.307926 -2.958816 19,000 183 230 0
2019-06-15 18:48:36 GMT 52.319626 -2.957732 19,000 187 266 0
2019-06-15 18:48:25 GMT 52.331959 -2.955363 19,000 181 245 0
2019-06-15 18:48:15 GMT 52.343845 -2.954956 19,000 183 262 0
2019-06-15 18:48:05 GMT 52.367199 -2.951665 19,000 185 221 0
2019-06-15 18:47:54 GMT 52.367199 -2.951665 19,000 183 232 0
2019-06-15 18:47:43 GMT 52.379028 -2.950440 19,000 186 255 0
2019-06-15 18:47:33 GMT 52.401421 -2.947655 19,000 182 246 0
2019-06-15 18:47:23 GMT 52.401421 -2.947655 19,000 182 224 0
2019-06-15 18:47:13 GMT 52.411812 -2.947029 19,000 185 225 0
2019-06-15 18:47:03 GMT 52.422203 -2.945534 19,000 182 254 0
2019-06-15 18:46:53 GMT 52.432697 -2.944072 19,000 184 250 0
2019-06-15 18:46:41 GMT 52.446159 -2.942685 19,000 185 206 0
2019-06-15 18:46:31 GMT 52.456310 -2.942600 19,000 186 222 0
2019-06-15 18:46:21 GMT 52.476665 -2.938593 19,000 183 219 0
2019-06-15 18:46:11 GMT 52.486519 -2.936939 19,000 183 215 0
2019-06-15 18:46:01 GMT 52.496181 -2.935504 19,000 184 227 0
2019-06-15 18:45:51 GMT 52.496181 -2.935504 19,000 179 203 0
2019-06-15 18:45:40 GMT 52.517788 -2.933457 19,000 187 210 60
2019-06-15 18:45:29 GMT 52.517788 -2.933457 19,000 185 200 240
2019-06-15 18:45:19 GMT 52.527077 -2.932252 19,000 187 211 780
2019-06-15 18:45:07 GMT 52.537998 -2.931167 18,925 187 205 360
2019-06-15 18:44:57 GMT 52.547413 -2.929018 18,775 188 205 420
2019-06-15 18:44:47 GMT 52.556747 -2.928291 18,675 182 193 480
2019-06-15 18:44:37 GMT 52.565693 -2.927685 18,550 185 204 480
2019-06-15 18:44:27 GMT 52.575249 -2.925421 18,475 182 203 420
2019-06-15 18:44:17 GMT 52.584667 -2.924655 18,350 186 185 300
2019-06-15 18:44:04 GMT 52.595734 -2.922459 18,250 179 210 780
2019-06-15 18:43:51 GMT 52.608391 -2.922664 18,100 184 196 900
2019-06-15 18:43:40 GMT 52.618500 -2.922523 17,950 175 194 960
2019-06-15 18:43:29 GMT 52.628525 -2.919331 17,850 182 193 420
2019-06-15 18:43:15 GMT 52.641678 -2.916572 17,625 185 219 240
2019-06-15 18:43:03 GMT 52.652805 -2.917227 17,475 180 191 480
2019-06-15 18:42:52 GMT 52.662563 -2.917073 17,375 180 186 480
2019-06-15 18:42:40 GMT 52.684502 -2.913226 17,250 184 200 300
2019-06-15 18:42:29 GMT 52.684502 -2.913226 17,125 184 180 420
2019-06-15 18:42:17 GMT 52.705658 -2.910018 17,000 191 201 1200
2019-06-15 18:42:06 GMT 52.705658 -2.910018 16,925 184 195 660
2019-06-15 18:41:55 GMT 52.728539 -2.905943 16,725 183 196 420
2019-06-15 18:41:41 GMT 52.728539 -2.905943 16,600 181 188 1080
2019-06-15 18:41:29 GMT 52.739021 -2.905355 16,450 179 199 780
2019-06-15 18:41:17 GMT 52.750084 -2.905435 16,275 187 193 960
2019-06-15 18:41:07 GMT 52.758625 -2.903335 16,175 183 193 1080
2019-06-15 18:40:45 GMT 52.781601 -2.898701 15,900 183 180 1200
2019-06-15 18:40:31 GMT 52.790764 -2.899890 15,650 192 218 960
2019-06-15 18:40:21 GMT 52.801643 -2.896654 15,350 182 185 480
2019-06-15 18:40:08 GMT 52.812477 -2.896535 15,225 185 193 480
2019-06-15 18:39:58 GMT 52.821590 -2.894608 15,150 185 215 900
2019-06-15 18:39:48 GMT 52.830475 -2.894074 15,025 178 198 780
2019-06-15 18:39:38 GMT 52.839401 -2.894710 14,900 177 193 1320
2019-06-15 18:39:23 GMT 52.852921 -2.895407 14,650 180 194 900
2019-06-15 18:39:11 GMT 52.863960 -2.894343 14,475 175 190 420
2019-06-15 18:39:00 GMT 52.873127 -2.897147 14,275 172 185 1020
2019-06-15 18:38:50 GMT 52.882359 -2.897098 14,125 186 195 1140
2019-06-15 18:38:39 GMT 52.893208 -2.895627 13,925 183 156 840
2019-06-15 18:38:26 GMT 52.903812 -2.893280 13,750 187 166 1020
2019-06-15 18:38:14 GMT 52.921638 -2.888359 13,575 191 180 420
2019-06-15 18:38:04 GMT 52.921638 -2.888359 13,450 195 200 1140
2019-06-15 18:37:54 GMT 52.929859 -2.885379 13,275 195 205 720
2019-06-15 18:37:40 GMT 52.942707 -2.879512 13,025 187 163 720
2019-06-15 18:37:29 GMT 52.950951 -2.877817 12,875 164 114 600
2019-06-15 18:37:17 GMT 52.971989 -2.870515 12,625 203 264 600
2019-06-15 18:37:04 GMT 52.971989 -2.870515 12,450 193 189 960
2019-06-15 18:36:52 GMT 52.981586 -2.867506 12,300 192 181 1020
2019-06-15 18:36:29 GMT 53.000450 -2.860798 11,925 195 171 1380
2019-06-15 18:36:19 GMT 53.008842 -2.856889 11,725 193 166 1080
2019-06-15 18:36:04 GMT 53.020077 -2.852398 11,525 198 182 720
2019-06-15 18:35:53 GMT 53.029850 -2.845550 11,250 195 160 960
2019-06-15 18:35:40 GMT 53.038731 -2.841169 10,950 205 192 2340
2019-06-15 18:35:29 GMT 53.047565 -2.834038 10,625 205 186 1140
2019-06-15 18:35:19 GMT 53.055473 -2.827193 10,425 206 203 780
2019-06-15 18:35:09 GMT 53.063557 -2.820703 10,150 203 173 2100
2019-06-15 18:34:58 GMT 53.071659 -2.814883 9,925 203 186 1020
2019-06-15 18:34:48 GMT 53.080967 -2.807463 9,575 205 205 2100
2019-06-15 18:34:38 GMT 53.089542 -2.800618 9,275 202 212 1080
2019-06-15 18:34:27 GMT 53.098904 -2.794142 8,925 204 234 1800
2019-06-15 18:34:16 GMT 53.109314 -2.786509 8,600 203 227 2160
2019-06-15 18:34:05 GMT 53.119911 -2.778754 8,250 203 235 540
2019-06-15 18:33:54 GMT 53.131592 -2.770265 8,000 202 236 0
2019-06-15 18:33:44 GMT 53.140972 -2.763880 8,000 202 241 0
2019-06-15 18:33:32 GMT 53.153393 -2.755288 8,000 203 252 0
2019-06-15 18:33:21 GMT 53.165165 -2.747030 8,000 204 235 0
2019-06-15 18:33:11 GMT 53.174957 -2.739467 8,000 204 230 0
2019-06-15 18:33:00 GMT 53.185635 -2.731325 8,000 203 225 0
2019-06-15 18:32:50 GMT 53.195171 -2.724175 8,000 204 209 60
2019-06-15 18:32:40 GMT 53.212929 -2.710380 8,000 204 213 60
2019-06-15 18:32:30 GMT 53.212929 -2.710380 8,000 205 218 660
2019-06-15 18:32:18 GMT 53.222923 -2.702465 7,975 206 213 1020
2019-06-15 18:32:08 GMT 53.231544 -2.695280 7,825 208 240 600
2019-06-15 18:31:58 GMT 53.241116 -2.686684 7,675 194 115 600
2019-06-15 18:31:47 GMT 53.249317 -2.680199 7,425 207 198 2640
2019-06-15 18:31:37 GMT 53.257336 -2.672759 7,275 214 157 0
2019-06-15 18:31:27 GMT 53.265495 -2.664960 7,050 212 233 1140
2019-06-15 18:31:16 GMT 53.281303 -2.645250 6,850 229 140 1500
2019-06-15 18:31:06 GMT 53.281303 -2.645250 6,600 230 201 1500
2019-06-15 18:30:55 GMT 53.287807 -2.629331 6,375 252 145 780
2019-06-15 18:30:41 GMT 53.292595 -2.610029 6,025 241 286 2280
2019-06-15 18:30:29 GMT 53.297112 -2.590740 5,725 253 156 1080
2019-06-15 18:30:18 GMT 53.300377 -2.573095 5,425 260 144 360
2019-06-15 18:30:08 GMT 53.302769 -2.558515 5,225 255 225 0
2019-06-15 18:29:58 GMT 53.305576 -2.541792 5,100 256 226 0
2019-06-15 18:29:47 GMT 53.308517 -2.524656 5,075 254 265
2019-06-15 18:29:37 GMT 53.311134 -2.508854 5,100 254 189
2019-06-15 18:29:21 GMT 53.314846 -2.486264 5,100 255 186

Making use of Plane Finder data

You are free to use the raw flight data, aircraft information and images provided in this report for your own purposes provided the data is correctly attributed to Plane Finder. We ask that you please credit Plane Finder and link to planefinder.net in close proximity to the content.

Optionally one of the following logos (no smaller then 150x24px) can be used and must link to planefinder.net

Embedding the Plane Finder map

You are welcome to embed the Plane Finder playback map on your website to offer visitors a more interactive experience. We suggest using the following HTML code:

<iframe src="//planefinder.net/data/report/GR679-G-LERE-7700-squawk-2019-06-15/map" width="800" height="600" seamless="seamless"></iframe>

Where our data comes from

Plane Finder has a global network of data feeds and antenna radars that receive data broadcast directly from aircraft. The primary technologies used are ADS-B and MLAT. We also show feeds from the FAA and a FLARM glider feed.

Click here to find out more about the Plane Finder network.

How we collect our data